sensor_id;sensor_type;location;lat;lon;timestamp;pressure;altitude;pressure_sealevel;temperature;humidity
72855;BME280;60991;51.278;22.550;2023-04-06T00:00:12;99494.50;;;2.62;55.20
72855;BME280;60991;51.278;22.550;2023-04-06T00:01:43;99487.06;;;2.66;54.86
72855;BME280;60991;51.278;22.550;2023-04-06T00:03:13;99490.63;;;2.58;54.97
72855;BME280;60991;51.278;22.550;2023-04-06T00:04:43;99489.63;;;2.59;54.78
72855;BME280;60991;51.278;22.550;2023-04-06T00:06:14;99488.41;;;2.40;55.08
72855;BME280;60991;51.278;22.550;2023-04-06T00:07:44;99488.41;;;2.40;55.36
72855;BME280;60991;51.278;22.550;2023-04-06T00:09:14;99479.25;;;2.51;55.67
72855;BME280;60991;51.278;22.550;2023-04-06T00:10:44;99477.97;;;2.47;55.31
72855;BME280;60991;51.278;22.550;2023-04-06T00:12:15;99481.78;;;2.44;54.91
72855;BME280;60991;51.278;22.550;2023-04-06T00:13:45;99474.56;;;2.47;55.45
72855;BME280;60991;51.278;22.550;2023-04-06T00:15:15;99480.69;;;2.54;54.68
72855;BME280;60991;51.278;22.550;2023-04-06T00:16:45;99484.41;;;2.59;55.02
72855;BME280;60991;51.278;22.550;2023-04-06T00:18:16;99473.72;;;2.61;54.87
72855;BME280;60991;51.278;22.550;2023-04-06T00:19:46;99476.31;;;2.61;54.55
72855;BME280;60991;51.278;22.550;2023-04-06T00:21:16;99472.53;;;2.63;54.88
72855;BME280;60991;51.278;22.550;2023-04-06T00:22:46;99470.81;;;2.70;54.60
72855;BME280;60991;51.278;22.550;2023-04-06T00:24:16;99470.63;;;2.72;54.52
72855;BME280;60991;51.278;22.550;2023-04-06T00:25:47;99466.19;;;2.72;54.89
72855;BME280;60991;51.278;22.550;2023-04-06T00:27:17;99474.88;;;2.73;54.52
72855;BME280;60991;51.278;22.550;2023-04-06T00:28:47;99465.94;;;2.67;54.87
72855;BME280;60991;51.278;22.550;2023-04-06T00:30:17;99468.63;;;2.74;54.12
72855;BME280;60991;51.278;22.550;2023-04-06T00:31:47;99459.59;;;2.76;54.50
72855;BME280;60991;51.278;22.550;2023-04-06T00:33:19;99461.31;;;2.69;55.01
72855;BME280;60991;51.278;22.550;2023-04-06T00:34:49;99453.91;;;2.73;54.04
72855;BME280;60991;51.278;22.550;2023-04-06T00:36:19;99453.72;;;2.74;54.35
72855;BME280;60991;51.278;22.550;2023-04-06T00:37:49;99452.72;;;2.75;54.55
72855;BME280;60991;51.278;22.550;2023-04-06T00:39:19;99454.19;;;2.78;54.27
72855;BME280;60991;51.278;22.550;2023-04-06T00:40:50;99444.47;;;2.78;54.93
72855;BME280;60991;51.278;22.550;2023-04-06T00:42:21;99444.41;;;2.72;54.86
72855;BME280;60991;51.278;22.550;2023-04-06T00:43:53;99446.78;;;2.67;54.18
72855;BME280;60991;51.278;22.550;2023-04-06T00:45:24;99444.16;;;2.67;54.89
72855;BME280;60991;51.278;22.550;2023-04-06T00:46:54;99450.13;;;2.61;54.24
72855;BME280;60991;51.278;22.550;2023-04-06T00:48:24;99435.97;;;2.55;54.81
72855;BME280;60991;51.278;22.550;2023-04-06T00:49:54;99440.44;;;2.61;54.62
72855;BME280;60991;51.278;22.550;2023-04-06T00:51:25;99437.84;;;2.61;54.72
72855;BME280;60991;51.278;22.550;2023-04-06T00:52:55;99441.16;;;2.70;54.61
72855;BME280;60991;51.278;22.550;2023-04-06T00:54:25;99441.63;;;2.73;54.34
72855;BME280;60991;51.278;22.550;2023-04-06T00:55:55;99440.34;;;2.69;54.66
72855;BME280;60991;51.278;22.550;2023-04-06T00:57:26;99433.50;;;2.68;55.07
72855;BME280;60991;51.278;22.550;2023-04-06T00:58:56;99437.72;;;2.69;54.51
72855;BME280;60991;51.278;22.550;2023-04-06T01:00:26;99431.50;;;2.70;55.15
72855;BME280;60991;51.278;22.550;2023-04-06T01:01:57;99434.78;;;2.79;55.03
72855;BME280;60991;51.278;22.550;2023-04-06T01:03:27;99439.84;;;2.81;54.74
72855;BME280;60991;51.278;22.550;2023-04-06T01:04:57;99438.31;;;2.86;54.60
72855;BME280;60991;51.278;22.550;2023-04-06T01:06:28;99437.06;;;2.82;55.16
72855;BME280;60991;51.278;22.550;2023-04-06T01:07:58;99426.94;;;2.79;54.93
72855;BME280;60991;51.278;22.550;2023-04-06T01:09:29;99427.34;;;2.76;54.94
72855;BME280;60991;51.278;22.550;2023-04-06T01:11:00;99425.56;;;2.83;54.63
72855;BME280;60991;51.278;22.550;2023-04-06T01:12:30;99431.06;;;2.88;54.33
72855;BME280;60991;51.278;22.550;2023-04-06T01:14:00;99422.41;;;2.88;54.94
72855;BME280;60991;51.278;22.550;2023-04-06T01:15:32;99426.19;;;2.85;55.16
72855;BME280;60991;51.278;22.550;2023-04-06T01:17:03;99424.84;;;2.89;54.08
72855;BME280;60991;51.278;22.550;2023-04-06T01:18:33;99420.41;;;2.90;54.39
72855;BME280;60991;51.278;22.550;2023-04-06T01:20:04;99419.69;;;2.81;54.88
72855;BME280;60991;51.278;22.550;2023-04-06T01:21:36;99424.72;;;2.76;54.51
72855;BME280;60991;51.278;22.550;2023-04-06T01:23:06;99412.41;;;2.76;54.87
72855;BME280;60991;51.278;22.550;2023-04-06T01:24:36;99420.81;;;2.72;54.70
72855;BME280;60991;51.278;22.550;2023-04-06T01:26:07;99414.78;;;2.71;54.77
72855;BME280;60991;51.278;22.550;2023-04-06T01:27:37;99421.00;;;2.70;55.02
72855;BME280;60991;51.278;22.550;2023-04-06T01:29:07;99419.75;;;2.66;54.53
72855;BME280;60991;51.278;22.550;2023-04-06T01:30:37;99419.19;;;2.71;54.82
72855;BME280;60991;51.278;22.550;2023-04-06T01:32:08;99417.75;;;2.68;54.63
72855;BME280;60991;51.278;22.550;2023-04-06T01:33:38;99418.22;;;2.72;54.69
72855;BME280;60991;51.278;22.550;2023-04-06T01:35:08;99413.06;;;2.64;55.39
72855;BME280;60991;51.278;22.550;2023-04-06T01:36:39;99407.84;;;2.64;55.62
72855;BME280;60991;51.278;22.550;2023-04-06T01:38:09;99415.97;;;2.69;55.46
72855;BME280;60991;51.278;22.550;2023-04-06T01:39:39;99410.34;;;2.72;55.44
72855;BME280;60991;51.278;22.550;2023-04-06T01:41:09;99408.81;;;2.77;55.44
72855;BME280;60991;51.278;22.550;2023-04-06T01:42:40;99404.56;;;2.76;55.38
72855;BME280;60991;51.278;22.550;2023-04-06T01:44:10;99405.28;;;2.70;55.71
72855;BME280;60991;51.278;22.550;2023-04-06T01:45:40;99405.84;;;2.66;54.99
72855;BME280;60991;51.278;22.550;2023-04-06T01:47:10;99407.91;;;2.70;55.45
72855;BME280;60991;51.278;22.550;2023-04-06T01:48:41;99393.00;;;2.71;54.58
72855;BME280;60991;51.278;22.550;2023-04-06T01:50:11;99407.19;;;2.76;54.64
72855;BME280;60991;51.278;22.550;2023-04-06T01:51:41;99397.69;;;2.75;55.22
72855;BME280;60991;51.278;22.550;2023-04-06T01:53:12;99398.31;;;2.77;55.28
72855;BME280;60991;51.278;22.550;2023-04-06T01:54:42;99391.50;;;2.83;54.84
72855;BME280;60991;51.278;22.550;2023-04-06T01:56:12;99391.28;;;2.63;55.21
72855;BME280;60991;51.278;22.550;2023-04-06T01:57:42;99393.00;;;2.71;54.96
72855;BME280;60991;51.278;22.550;2023-04-06T01:59:12;99378.44;;;2.68;55.49
72855;BME280;60991;51.278;22.550;2023-04-06T02:00:43;99382.81;;;2.61;55.91
72855;BME280;60991;51.278;22.550;2023-04-06T02:02:13;99377.47;;;2.69;55.08
72855;BME280;60991;51.278;22.550;2023-04-06T02:03:43;99380.44;;;2.66;55.84
72855;BME280;60991;51.278;22.550;2023-04-06T02:05:13;99373.56;;;2.65;55.16
72855;BME280;60991;51.278;22.550;2023-04-06T02:06:43;99370.69;;;2.60;56.01
72855;BME280;60991;51.278;22.550;2023-04-06T02:08:14;99377.09;;;2.72;55.49
72855;BME280;60991;51.278;22.550;2023-04-06T02:09:44;99371.13;;;2.64;55.70
72855;BME280;60991;51.278;22.550;2023-04-06T02:11:14;99365.53;;;2.67;55.79
72855;BME280;60991;51.278;22.550;2023-04-06T02:12:44;99365.78;;;2.72;55.23
72855;BME280;60991;51.278;22.550;2023-04-06T02:14:14;99370.41;;;2.70;55.08
72855;BME280;60991;51.278;22.550;2023-04-06T02:15:45;99368.88;;;2.61;55.71
72855;BME280;60991;51.278;22.550;2023-04-06T02:17:15;99369.28;;;2.58;56.14
72855;BME280;60991;51.278;22.550;2023-04-06T02:18:45;99366.97;;;2.48;55.55
72855;BME280;60991;51.278;22.550;2023-04-06T02:20:15;99361.44;;;2.58;55.84
72855;BME280;60991;51.278;22.550;2023-04-06T02:21:46;99359.19;;;2.55;55.63
72855;BME280;60991;51.278;22.550;2023-04-06T02:23:16;99361.25;;;2.59;56.10
72855;BME280;60991;51.278;22.550;2023-04-06T02:24:46;99356.00;;;2.59;55.50
72855;BME280;60991;51.278;22.550;2023-04-06T02:26:16;99353.97;;;2.61;55.89
72855;BME280;60991;51.278;22.550;2023-04-06T02:27:46;99359.97;;;2.55;55.85
72855;BME280;60991;51.278;22.550;2023-04-06T02:29:17;99352.22;;;2.47;56.19
72855;BME280;60991;51.278;22.550;2023-04-06T02:30:47;99357.03;;;2.43;56.78
72855;BME280;60991;51.278;22.550;2023-04-06T02:32:17;99354.03;;;2.47;57.07
72855;BME280;60991;51.278;22.550;2023-04-06T02:33:47;99347.94;;;2.39;56.47
72855;BME280;60991;51.278;22.550;2023-04-06T02:35:17;99355.03;;;2.46;56.92
72855;BME280;60991;51.278;22.550;2023-04-06T02:36:48;99348.44;;;2.50;57.06
72855;BME280;60991;51.278;22.550;2023-04-06T02:38:18;99343.63;;;2.53;56.81
72855;BME280;60991;51.278;22.550;2023-04-06T02:39:48;99347.25;;;2.52;56.36
72855;BME280;60991;51.278;22.550;2023-04-06T02:41:18;99336.78;;;2.52;56.54
72855;BME280;60991;51.278;22.550;2023-04-06T02:42:49;99342.28;;;2.57;56.65
72855;BME280;60991;51.278;22.550;2023-04-06T02:44:19;99339.31;;;2.67;56.30
72855;BME280;60991;51.278;22.550;2023-04-06T02:45:49;99339.50;;;2.65;56.43
72855;BME280;60991;51.278;22.550;2023-04-06T02:47:19;99335.41;;;2.56;56.98
72855;BME280;60991;51.278;22.550;2023-04-06T02:48:49;99325.84;;;2.49;56.52
72855;BME280;60991;51.278;22.550;2023-04-06T02:50:20;99333.63;;;2.42;57.34
72855;BME280;60991;51.278;22.550;2023-04-06T02:51:50;99334.34;;;2.51;57.01
72855;BME280;60991;51.278;22.550;2023-04-06T02:53:20;99335.22;;;2.58;56.59
72855;BME280;60991;51.278;22.550;2023-04-06T02:54:50;99331.41;;;2.60;56.75
72855;BME280;60991;51.278;22.550;2023-04-06T02:56:21;99327.28;;;2.51;56.99
72855;BME280;60991;51.278;22.550;2023-04-06T02:57:51;99328.91;;;2.52;57.27
72855;BME280;60991;51.278;22.550;2023-04-06T02:59:21;99325.38;;;2.60;57.26
72855;BME280;60991;51.278;22.550;2023-04-06T03:00:51;99334.41;;;2.57;57.06
72855;BME280;60991;51.278;22.550;2023-04-06T03:02:21;99325.38;;;2.60;57.38
72855;BME280;60991;51.278;22.550;2023-04-06T03:03:52;99326.56;;;2.57;56.89
72855;BME280;60991;51.278;22.550;2023-04-06T03:05:22;99332.47;;;2.66;56.86
72855;BME280;60991;51.278;22.550;2023-04-06T03:06:53;99334.28;;;2.65;57.29
72855;BME280;60991;51.278;22.550;2023-04-06T03:08:24;99324.34;;;2.61;57.30
72855;BME280;60991;51.278;22.550;2023-04-06T03:09:54;99328.03;;;2.66;57.13
72855;BME280;60991;51.278;22.550;2023-04-06T03:11:24;99322.78;;;2.66;57.58
72855;BME280;60991;51.278;22.550;2023-04-06T03:12:54;99329.16;;;2.57;57.04
72855;BME280;60991;51.278;22.550;2023-04-06T03:14:25;99321.97;;;2.66;57.55
72855;BME280;60991;51.278;22.550;2023-04-06T03:15:55;99328.00;;;2.60;57.96
72855;BME280;60991;51.278;22.550;2023-04-06T03:17:25;99322.31;;;2.56;57.25
72855;BME280;60991;51.278;22.550;2023-04-06T03:18:55;99327.91;;;2.53;57.51
72855;BME280;60991;51.278;22.550;2023-04-06T03:20:26;99328.19;;;2.58;57.50
72855;BME280;60991;51.278;22.550;2023-04-06T03:21:56;99323.59;;;2.46;57.75
72855;BME280;60991;51.278;22.550;2023-04-06T03:23:26;99324.72;;;2.36;58.39
72855;BME280;60991;51.278;22.550;2023-04-06T03:24:56;99323.59;;;2.46;58.01
72855;BME280;60991;51.278;22.550;2023-04-06T03:26:26;99321.34;;;2.42;57.73
72855;BME280;60991;51.278;22.550;2023-04-06T03:27:57;99321.13;;;2.37;58.14
72855;BME280;60991;51.278;22.550;2023-04-06T03:29:27;99321.34;;;2.42;58.24
72855;BME280;60991;51.278;22.550;2023-04-06T03:30:57;99318.63;;;2.51;58.35
72855;BME280;60991;51.278;22.550;2023-04-06T03:32:27;99317.00;;;2.50;58.81
72855;BME280;60991;51.278;22.550;2023-04-06T03:33:57;99320.44;;;2.50;58.59
72855;BME280;60991;51.278;22.550;2023-04-06T03:35:28;99317.50;;;2.60;58.89
72855;BME280;60991;51.278;22.550;2023-04-06T03:36:58;99306.78;;;2.55;59.19
72855;BME280;60991;51.278;22.550;2023-04-06T03:38:28;99314.31;;;2.43;59.44
72855;BME280;60991;51.278;22.550;2023-04-06T03:39:58;99314.31;;;2.43;60.28
72855;BME280;60991;51.278;22.550;2023-04-06T03:41:28;99318.72;;;2.42;60.52
72855;BME280;60991;51.278;22.550;2023-04-06T03:42:59;99319.84;;;2.33;60.62
72855;BME280;60991;51.278;22.550;2023-04-06T03:44:29;99320.94;;;2.39;60.42
72855;BME280;60991;51.278;22.550;2023-04-06T03:45:59;99312.00;;;2.33;60.37
72855;BME280;60991;51.278;22.550;2023-04-06T03:47:29;99310.47;;;2.24;61.28
72855;BME280;60991;51.278;22.550;2023-04-06T03:49:00;99301.41;;;2.20;61.84
72855;BME280;60991;51.278;22.550;2023-04-06T03:50:30;99315.91;;;2.23;62.07
72855;BME280;60991;51.278;22.550;2023-04-06T03:52:01;99307.25;;;2.22;62.14
72855;BME280;60991;51.278;22.550;2023-04-06T03:53:31;99303.56;;;2.17;62.37
72855;BME280;60991;51.278;22.550;2023-04-06T03:55:01;99312.59;;;2.14;62.55
72855;BME280;60991;51.278;22.550;2023-04-06T03:56:32;99310.06;;;2.06;62.22
72855;BME280;60991;51.278;22.550;2023-04-06T03:58:02;99311.69;;;2.07;63.09
72855;BME280;60991;51.278;22.550;2023-04-06T03:59:32;99303.34;;;1.97;63.67
72855;BME280;60991;51.278;22.550;2023-04-06T04:01:02;99308.03;;;2.01;63.55
72855;BME280;60991;51.278;22.550;2023-04-06T04:02:33;99310.53;;;2.09;63.60
72855;BME280;60991;51.278;22.550;2023-04-06T04:04:03;99298.50;;;2.15;63.64
72855;BME280;60991;51.278;22.550;2023-04-06T04:05:33;99297.06;;;2.13;63.55
72855;BME280;60991;51.278;22.550;2023-04-06T04:07:03;99293.38;;;2.07;64.01
72855;BME280;60991;51.278;22.550;2023-04-06T04:08:33;99291.75;;;2.06;64.24
72855;BME280;60991;51.278;22.550;2023-04-06T04:10:04;99297.06;;;2.13;64.32
72855;BME280;60991;51.278;22.550;2023-04-06T04:11:34;99286.81;;;1.96;64.33
72855;BME280;60991;51.278;22.550;2023-04-06T04:13:04;99287.00;;;1.95;64.63
72855;BME280;60991;51.278;22.550;2023-04-06T04:14:35;99278.53;;;1.93;64.53
72855;BME280;60991;51.278;22.550;2023-04-06T04:16:05;99280.16;;;1.94;64.67
72855;BME280;60991;51.278;22.550;2023-04-06T04:17:35;99286.00;;;1.96;65.11
72855;BME280;60991;51.278;22.550;2023-04-06T04:19:05;99288.53;;;1.89;64.93
72855;BME280;60991;51.278;22.550;2023-04-06T04:20:35;99279.69;;;1.90;65.38
72855;BME280;60991;51.278;22.550;2023-04-06T04:22:06;99279.97;;;1.95;65.27
72855;BME280;60991;51.278;22.550;2023-04-06T04:23:36;99280.50;;;1.91;65.33
72855;BME280;60991;51.278;22.550;2023-04-06T04:25:06;99273.03;;;1.88;65.35
72855;BME280;60991;51.278;22.550;2023-04-06T04:26:37;99278.53;;;1.93;64.97
72855;BME280;60991;51.278;22.550;2023-04-06T04:28:08;99279.25;;;1.87;65.15
72855;BME280;60991;51.278;22.550;2023-04-06T04:29:38;99274.59;;;1.82;65.57
72855;BME280;60991;51.278;22.550;2023-04-06T04:31:08;99276.31;;;1.75;66.41
72855;BME280;60991;51.278;22.550;2023-04-06T04:32:38;99280.56;;;1.61;66.88
72855;BME280;60991;51.278;22.550;2023-04-06T04:34:08;99283.25;;;1.68;66.58
72855;BME280;60991;51.278;22.550;2023-04-06T04:35:39;99272.72;;;1.61;67.07
72855;BME280;60991;51.278;22.550;2023-04-06T04:37:09;99271.47;;;1.57;67.47
72855;BME280;60991;51.278;22.550;2023-04-06T04:38:39;99284.28;;;1.52;67.71
72855;BME280;60991;51.278;22.550;2023-04-06T04:40:10;99279.88;;;1.38;68.78
72855;BME280;60991;51.278;22.550;2023-04-06T04:41:40;99273.56;;;1.47;68.47
72855;BME280;60991;51.278;22.550;2023-04-06T04:43:10;99273.28;;;1.27;68.75
72855;BME280;60991;51.278;22.550;2023-04-06T04:44:41;99272.72;;;1.17;68.98
72855;BME280;60991;51.278;22.550;2023-04-06T04:46:11;99270.66;;;1.13;69.05
72855;BME280;60991;51.278;22.550;2023-04-06T04:47:41;99265.97;;;1.23;68.84
72855;BME280;60991;51.278;22.550;2023-04-06T04:49:11;99254.88;;;1.35;68.69
72855;BME280;60991;51.278;22.550;2023-04-06T04:50:41;99255.06;;;1.34;68.41
72855;BME280;60991;51.278;22.550;2023-04-06T04:52:12;99259.94;;;1.37;68.37
72855;BME280;60991;51.278;22.550;2023-04-06T04:53:42;99260.84;;;1.29;68.96
72855;BME280;60991;51.278;22.550;2023-04-06T04:55:13;99239.03;;;1.22;68.96
72855;BME280;60991;51.278;22.550;2023-04-06T04:56:43;99244.25;;;1.22;68.82
72855;BME280;60991;51.278;22.550;2023-04-06T04:58:13;99249.31;;;1.24;68.74
72855;BME280;60991;51.278;22.550;2023-04-06T04:59:43;99250.56;;;1.28;68.73
72855;BME280;60991;51.278;22.550;2023-04-06T05:01:14;99242.81;;;1.20;69.02
72855;BME280;60991;51.278;22.550;2023-04-06T05:02:44;99237.31;;;1.15;69.19
72855;BME280;60991;51.278;22.550;2023-04-06T05:04:14;99235.25;;;1.10;69.57
72855;BME280;60991;51.278;22.550;2023-04-06T05:05:44;99246.06;;;1.07;69.75
72855;BME280;60991;51.278;22.550;2023-04-06T05:07:14;99248.28;;;0.95;70.09
72855;BME280;60991;51.278;22.550;2023-04-06T05:08:45;99245.44;;;1.05;70.13
72855;BME280;60991;51.278;22.550;2023-04-06T05:10:15;99243.53;;;1.14;69.28
72855;BME280;60991;51.278;22.550;2023-04-06T05:11:45;99245.59;;;1.03;69.90
72855;BME280;60991;51.278;22.550;2023-04-06T05:13:15;99239.28;;;1.13;69.89
72855;BME280;60991;51.278;22.550;2023-04-06T05:14:46;99245.97;;;1.00;70.36
72855;BME280;60991;51.278;22.550;2023-04-06T05:16:16;99242.00;;;0.90;70.89
72855;BME280;60991;51.278;22.550;2023-04-06T05:17:46;99239.91;;;0.85;71.25
72855;BME280;60991;51.278;22.550;2023-04-06T05:19:16;99237.94;;;0.87;71.57
72855;BME280;60991;51.278;22.550;2023-04-06T05:20:47;99242.88;;;0.97;71.32
72855;BME280;60991;51.278;22.550;2023-04-06T05:22:17;99239.56;;;1.18;70.29
72855;BME280;60991;51.278;22.550;2023-04-06T05:23:47;99227.31;;;1.18;70.91
72855;BME280;60991;51.278;22.550;2023-04-06T05:25:17;99228.47;;;1.16;71.17
72855;BME280;60991;51.278;22.550;2023-04-06T05:26:48;99229.22;;;1.10;71.18
72855;BME280;60991;51.278;22.550;2023-04-06T05:28:19;99233.44;;;1.11;70.90
72855;BME280;60991;51.278;22.550;2023-04-06T05:29:49;99234.06;;;1.13;71.09
72855;BME280;60991;51.278;22.550;2023-04-06T05:31:19;99233.88;;;1.14;70.87
72855;BME280;60991;51.278;22.550;2023-04-06T05:32:50;99225.69;;;1.17;71.57
72855;BME280;60991;51.278;22.550;2023-04-06T05:34:20;99218.31;;;1.06;71.34
72855;BME280;60991;51.278;22.550;2023-04-06T05:35:50;99229.34;;;0.93;72.00
72855;BME280;60991;51.278;22.550;2023-04-06T05:37:20;99233.97;;;0.91;71.93
72855;BME280;60991;51.278;22.550;2023-04-06T05:38:51;99229.19;;;0.95;72.12
72855;BME280;60991;51.278;22.550;2023-04-06T05:40:21;99222.09;;;1.03;72.00
72855;BME280;60991;51.278;22.550;2023-04-06T05:41:51;99225.97;;;1.08;72.18
72855;BME280;60991;51.278;22.550;2023-04-06T05:43:21;99231.53;;;0.90;72.77
72855;BME280;60991;51.278;22.550;2023-04-06T05:44:51;99233.41;;;0.96;72.48
72855;BME280;60991;51.278;22.550;2023-04-06T05:46:22;99230.28;;;0.86;72.66
72855;BME280;60991;51.278;22.550;2023-04-06T05:47:52;99226.75;;;0.93;72.76
72855;BME280;60991;51.278;22.550;2023-04-06T05:49:22;99230.16;;;0.94;72.92
72855;BME280;60991;51.278;22.550;2023-04-06T05:50:52;99215.13;;;0.96;72.80
72855;BME280;60991;51.278;22.550;2023-04-06T05:52:22;99229.34;;;0.93;73.13
72855;BME280;60991;51.278;22.550;2023-04-06T05:53:53;99225.41;;;0.97;72.60
72855;BME280;60991;51.278;22.550;2023-04-06T05:55:23;99226.13;;;0.91;73.54
72855;BME280;60991;51.278;22.550;2023-04-06T05:56:53;99223.16;;;1.09;72.57
72855;BME280;60991;51.278;22.550;2023-04-06T05:58:23;99218.81;;;1.16;72.46
72855;BME280;60991;51.278;22.550;2023-04-06T05:59:53;99216.03;;;1.18;72.37
72855;BME280;60991;51.278;22.550;2023-04-06T06:01:24;99229.38;;;1.08;72.70
72855;BME280;60991;51.278;22.550;2023-04-06T06:02:54;99226.03;;;1.14;72.69
72855;BME280;60991;51.278;22.550;2023-04-06T06:04:24;99226.31;;;1.04;73.18
72855;BME280;60991;51.278;22.550;2023-04-06T06:05:59;99224.88;;;1.17;73.19
72855;BME280;60991;51.278;22.550;2023-04-06T06:07:29;99220.81;;;1.14;73.04
72855;BME280;60991;51.278;22.550;2023-04-06T06:09:00;99214.25;;;1.03;73.63
72855;BME280;60991;51.278;22.550;2023-04-06T06:10:30;99211.97;;;1.00;73.93
72855;BME280;60991;51.278;22.550;2023-04-06T06:12:00;99212.25;;;1.06;73.58
72855;BME280;60991;51.278;22.550;2023-04-06T06:13:30;99216.56;;;1.13;73.56
72855;BME280;60991;51.278;22.550;2023-04-06T06:15:00;99202.59;;;1.21;73.08
72855;BME280;60991;51.278;22.550;2023-04-06T06:16:31;99203.06;;;1.10;73.93
72855;BME280;60991;51.278;22.550;2023-04-06T06:18:01;99203.69;;;1.12;74.19
72855;BME280;60991;51.278;22.550;2023-04-06T06:19:31;99207.03;;;1.06;74.33
72855;BME280;60991;51.278;22.550;2023-04-06T06:21:02;99205.06;;;1.08;74.21
72855;BME280;60991;51.278;22.550;2023-04-06T06:22:32;99202.69;;;1.13;74.00
72855;BME280;60991;51.278;22.550;2023-04-06T06:24:03;99199.72;;;1.16;74.34
72855;BME280;60991;51.278;22.550;2023-04-06T06:25:33;99192.97;;;1.21;74.69
72855;BME280;60991;51.278;22.550;2023-04-06T06:27:03;99191.59;;;1.25;74.14
72855;BME280;60991;51.278;22.550;2023-04-06T06:28:33;99187.63;;;1.15;74.72
72855;BME280;60991;51.278;22.550;2023-04-06T06:30:04;99187.38;;;1.10;74.69
72855;BME280;60991;51.278;22.550;2023-04-06T06:31:34;99184.59;;;1.11;75.04
72855;BME280;60991;51.278;22.550;2023-04-06T06:33:05;99188.63;;;0.99;75.02
72855;BME280;60991;51.278;22.550;2023-04-06T06:34:35;99187.75;;;0.92;75.18
72855;BME280;60991;51.278;22.550;2023-04-06T06:36:05;99187.03;;;0.83;75.77
72855;BME280;60991;51.278;22.550;2023-04-06T06:37:36;99188.91;;;0.89;75.35
72855;BME280;60991;51.278;22.550;2023-04-06T06:39:06;99194.69;;;0.85;75.95
72855;BME280;60991;51.278;22.550;2023-04-06T06:40:36;99180.16;;;0.97;75.57
72855;BME280;60991;51.278;22.550;2023-04-06T06:42:06;99193.34;;;0.89;76.14
72855;BME280;60991;51.278;22.550;2023-04-06T06:43:37;99189.91;;;0.88;76.07
72855;BME280;60991;51.278;22.550;2023-04-06T06:45:07;99186.84;;;0.85;76.37
72855;BME280;60991;51.278;22.550;2023-04-06T06:46:37;99182.41;;;1.00;75.80
72855;BME280;60991;51.278;22.550;2023-04-06T06:48:08;99187.13;;;0.90;76.21
72855;BME280;60991;51.278;22.550;2023-04-06T06:49:38;99177.72;;;0.81;76.43
72855;BME280;60991;51.278;22.550;2023-04-06T06:51:08;99171.69;;;0.80;76.17
72855;BME280;60991;51.278;22.550;2023-04-06T06:52:39;99182.78;;;0.82;76.45
72855;BME280;60991;51.278;22.550;2023-04-06T06:54:09;99166.47;;;0.80;76.58
72855;BME280;60991;51.278;22.550;2023-04-06T06:55:39;99173.13;;;0.83;76.91
72855;BME280;60991;51.278;22.550;2023-04-06T06:57:10;99167.81;;;0.76;77.12
72855;BME280;60991;51.278;22.550;2023-04-06T06:58:40;99165.59;;;0.73;77.55
72855;BME280;60991;51.278;22.550;2023-04-06T07:00:11;99169.81;;;0.74;77.39
72855;BME280;60991;51.278;22.550;2023-04-06T07:01:42;99170.44;;;0.76;77.31
72855;BME280;60991;51.278;22.550;2023-04-06T07:03:12;99160.72;;;0.70;77.95
72855;BME280;60991;51.278;22.550;2023-04-06T07:04:42;99155.50;;;0.70;78.08
72855;BME280;60991;51.278;22.550;2023-04-06T07:06:12;99158.63;;;0.80;77.90
72855;BME280;60991;51.278;22.550;2023-04-06T07:07:43;99152.78;;;0.78;77.77
72855;BME280;60991;51.278;22.550;2023-04-06T07:09:13;99148.91;;;0.89;77.55
72855;BME280;60991;51.278;22.550;2023-04-06T07:10:43;99147.00;;;0.83;77.88
72855;BME280;60991;51.278;22.550;2023-04-06T07:12:13;99143.41;;;0.84;77.48
72855;BME280;60991;51.278;22.550;2023-04-06T07:13:43;99134.41;;;0.86;77.71
72855;BME280;60991;51.278;22.550;2023-04-06T07:15:14;99132.44;;;0.88;78.10
72855;BME280;60991;51.278;22.550;2023-04-06T07:16:44;99124.13;;;0.85;77.79
72855;BME280;60991;51.278;22.550;2023-04-06T07:18:14;99127.09;;;0.82;78.01
72855;BME280;60991;51.278;22.550;2023-04-06T07:19:44;99121.44;;;0.78;78.31
72855;BME280;60991;51.278;22.550;2023-04-06T07:21:15;99122.06;;;0.80;78.67
72855;BME280;60991;51.278;22.550;2023-04-06T07:22:45;99130.16;;;0.85;78.10
72855;BME280;60991;51.278;22.550;2023-04-06T07:24:15;99125.94;;;0.84;78.10
72855;BME280;60991;51.278;22.550;2023-04-06T07:25:45;99127.56;;;0.85;78.51
72855;BME280;60991;51.278;22.550;2023-04-06T07:27:16;99126.22;;;0.89;78.54
72855;BME280;60991;51.278;22.550;2023-04-06T07:28:46;99128.47;;;0.92;78.38
72855;BME280;60991;51.278;22.550;2023-04-06T07:30:16;99129.47;;;0.91;77.87
72855;BME280;60991;51.278;22.550;2023-04-06T07:31:47;99128.66;;;0.91;78.41
72855;BME280;60991;51.278;22.550;2023-04-06T07:33:17;99134.94;;;0.96;78.51
72855;BME280;60991;51.278;22.550;2023-04-06T07:34:47;99127.25;;;0.95;78.45
72855;BME280;60991;51.278;22.550;2023-04-06T07:36:17;99131.31;;;0.97;78.24
72855;BME280;60991;51.278;22.550;2023-04-06T07:37:48;99124.66;;;0.95;78.69
72855;BME280;60991;51.278;22.550;2023-04-06T07:39:18;99121.97;;;0.88;78.56
72855;BME280;60991;51.278;22.550;2023-04-06T07:40:48;99117.63;;;0.95;78.87
72855;BME280;60991;51.278;22.550;2023-04-06T07:42:18;99115.94;;;0.88;79.08
72855;BME280;60991;51.278;22.550;2023-04-06T07:43:48;99135.09;;;0.95;78.90
72855;BME280;60991;51.278;22.550;2023-04-06T07:45:19;99116.63;;;0.96;79.49
72855;BME280;60991;51.278;22.550;2023-04-06T07:46:49;99120.34;;;1.02;79.21
72855;BME280;60991;51.278;22.550;2023-04-06T07:48:19;99113.31;;;1.02;79.12
72855;BME280;60991;51.278;22.550;2023-04-06T07:49:49;99117.00;;;1.08;78.87
72855;BME280;60991;51.278;22.550;2023-04-06T07:51:19;99118.97;;;1.06;79.37
72855;BME280;60991;51.278;22.550;2023-04-06T07:52:50;99118.22;;;1.12;78.93
72855;BME280;60991;51.278;22.550;2023-04-06T07:54:20;99108.78;;;1.11;79.25
72855;BME280;60991;51.278;22.550;2023-04-06T07:55:50;99121.41;;;1.08;79.23
72855;BME280;60991;51.278;22.550;2023-04-06T07:57:20;99118.81;;;1.08;79.34